Time;durP1;ratioP1;P1;durP2;ratioP2;P2;SDS_P1;SDS_P2;PMS_P1;PMS_P2;Temp;Humidity;BMP_temperature;BMP_pressure;BME280_temperature;BME280_humidity;BME280_pressure;Samples;Min_cycle;Max_cycle;Signal;HPM_P1;HPM_P2
2022/09/29 00:00:28;;;;;;;4.10;2.13;;;;;4.00;92524.00;;;;7393520;19;20121;-79
2022/09/29 00:03:05;;;;;;;6.40;2.47;;;;;4.00;92521.00;;;;7396236;19;20647;-78
2022/09/29 00:05:36;;;;;;;7.97;2.40;;;;;4.10;92525.00;;;;7393314;19;20150;-78
2022/09/29 00:08:12;;;;;;;3.67;2.17;;;;;4.20;92529.00;;;;7396191;19;20139;-77
2022/09/29 00:10:40;;;;;;;2.80;2.13;;;;;4.20;92521.00;;;;7391895;19;20137;-78
2022/09/29 00:13:11;;;;;;;3.93;2.23;;;;;4.20;92523.00;;;;7392084;19;20173;-78
2022/09/29 00:15:56;;;;;;;4.83;2.30;;;;;4.10;92528.00;;;;7394726;19;20599;-78
2022/09/29 00:18:24;;;;;;;5.40;2.57;;;;;4.20;92519.00;;;;7394196;19;20136;-77
2022/09/29 00:21:02;;;;;;;6.47;2.83;;;;;4.20;92524.00;;;;7394894;19;20132;-78
2022/09/29 00:23:31;;;;;;;3.80;2.50;;;;;4.30;92522.00;;;;7393551;19;20145;-78
2022/09/29 00:26:08;;;;;;;2.83;2.30;;;;;4.40;92527.00;;;;7395035;19;20587;-78
2022/09/29 00:28:38;;;;;;;4.33;2.83;;;;;4.50;92516.00;;;;7394782;19;20624;-78
2022/09/29 00:31:13;;;;;;;5.80;2.73;;;;;4.50;92514.00;;;;7390587;19;20137;-78
2022/09/29 00:33:43;;;;;;;4.50;2.60;;;;;4.50;92514.00;;;;7395784;19;20611;-77
2022/09/29 00:36:13;;;;;;;5.23;3.10;;;;;4.50;92512.00;;;;7395313;19;20599;-78
2022/09/29 00:38:49;;;;;;;8.07;3.20;;;;;4.60;92518.00;;;;7394522;19;20124;-78
2022/09/29 00:41:25;;;;;;;5.27;3.10;;;;;4.60;92514.00;;;;7393466;19;20141;-77
2022/09/29 00:44:06;;;;;;;4.83;2.83;;;;;4.60;92514.00;;;;7394519;19;20595;-79
2022/09/29 00:46:45;;;;;;;6.70;3.10;;;;;4.60;92511.00;;;;7394444;19;20216;-79
2022/09/29 00:49:26;;;;;;;6.10;3.30;;;;;4.60;92511.00;;;;7392370;19;20540;-79
2022/09/29 00:52:35;;;;;;;5.07;3.60;;;;;4.60;92512.00;;;;7390545;19;20125;-78
2022/09/29 00:55:23;;;;;;;6.00;3.23;;;;;4.70;92516.00;;;;7388114;19;20185;-79
2022/09/29 00:58:30;;;;;;;5.50;3.57;;;;;4.70;92503.00;;;;7393058;19;20196;-77
2022/09/29 01:01:05;;;;;;;7.33;3.33;;;;;4.70;92505.00;;;;7392458;19;20978;-75
2022/09/29 01:03:37;;;;;;;3.73;3.13;;;;;4.80;92500.00;;;;7393561;19;20596;-75
2022/09/29 01:06:25;;;;;;;5.67;3.27;;;;;4.90;92505.00;;;;7393836;19;20200;-75
2022/09/29 01:09:01;;;;;;;6.53;3.53;;;;;5.00;92498.00;;;;7392421;19;20145;-74
2022/09/29 01:11:38;;;;;;;8.70;3.80;;;;;5.00;92515.00;;;;7391104;19;20153;-75
2022/09/29 01:14:08;;;;;;;7.63;3.70;;;;;5.10;92503.00;;;;7393057;19;20618;-74
2022/09/29 01:16:40;;;;;;;7.53;3.50;;;;;5.30;92499.00;;;;7391376;19;20503;-75
2022/09/29 01:19:34;;;;;;;4.83;3.30;;;;;5.20;92505.00;;;;7391479;19;20506;-74
2022/09/29 01:22:02;;;;;;;6.70;3.13;;;;;5.20;92497.00;;;;7390704;19;20124;-75
2022/09/29 01:24:56;;;;;;;7.47;3.10;;;;;5.40;92498.00;;;;7392852;19;20169;-74
2022/09/29 01:27:54;;;;;;;6.83;3.00;;;;;5.40;92501.00;;;;7392831;19;20193;-75
2022/09/29 01:31:06;;;;;;;4.57;3.00;;;;;5.30;92502.00;;;;7391816;19;20151;-75
2022/09/29 01:33:46;;;;;;;4.43;2.90;;;;;5.40;92502.00;;;;7393011;19;20129;-75
2022/09/29 01:36:38;;;;;;;7.60;2.90;;;;;5.40;92507.00;;;;7392249;19;20119;-75
2022/09/29 01:39:12;;;;;;;5.87;2.53;;;;;5.40;92497.00;;;;7393424;19;20670;-75
2022/09/29 01:41:50;;;;;;;5.00;2.70;;;;;5.50;92505.00;;;;7392943;19;20471;-75
2022/09/29 01:45:03;;;;;;;5.93;2.77;;;;;5.50;92518.00;;;;7391537;19;20600;-75
2022/09/29 01:47:46;;;;;;;5.13;2.60;;;;;5.50;92505.00;;;;7388707;19;20141;-75
2022/09/29 01:50:31;;;;;;;7.07;2.80;;;;;5.60;92512.00;;;;7392056;19;20781;-76
2022/09/29 01:53:19;;;;;;;7.50;2.80;;;;;5.80;92507.00;;;;7392903;19;20129;-75
2022/09/29 01:55:58;;;;;;;4.47;2.63;;;;;5.70;92515.00;;;;7391785;19;20149;-75
2022/09/29 01:58:55;;;;;;;5.07;2.40;;;;;5.70;92511.00;;;;7390911;19;20153;-75
2022/09/29 02:01:30;;;;;;;9.33;2.33;;;;;5.90;92509.00;;;;7388889;19;20153;-75
2022/09/29 02:04:12;;;;;;;5.23;2.20;;;;;5.70;92516.00;;;;7389715;19;20137;-74
2022/09/29 02:06:48;;;;;;;7.20;2.50;;;;;5.70;92507.00;;;;7390215;19;20611;-75
2022/09/29 02:09:27;;;;;;;6.30;2.33;;;;;5.70;92510.00;;;;7391795;19;20133;-75
2022/09/29 02:11:59;;;;;;;5.80;2.47;;;;;5.70;92514.00;;;;7390386;19;20468;-75
2022/09/29 02:14:41;;;;;;;7.73;2.90;;;;;5.80;92510.00;;;;7389114;19;20148;-74
2022/09/29 02:17:32;;;;;;;7.80;2.43;;;;;6.10;92505.00;;;;7390689;19;20117;-75
2022/09/29 02:20:09;;;;;;;7.13;2.17;;;;;6.10;92516.00;;;;7390573;19;20646;-75
2022/09/29 02:22:37;;;;;;;5.93;2.47;;;;;5.90;92514.00;;;;7390641;19;20116;-75
2022/09/29 02:25:07;;;;;;;4.20;2.30;;;;;5.80;92502.00;;;;7391165;19;20949;-74
2022/09/29 02:27:42;;;;;;;5.37;2.40;;;;;5.80;92500.00;;;;7391852;19;20129;-77
2022/09/29 02:30:11;;;;;;;4.43;2.40;;;;;5.80;92507.00;;;;7389949;19;20132;-77
2022/09/29 02:32:39;;;;;;;5.50;2.33;;;;;5.80;92509.00;;;;7385187;19;21013;-76
2022/09/29 02:35:14;;;;;;;7.50;2.43;;;;;5.80;92508.00;;;;7389599;19;20140;-75
2022/09/29 02:38:02;;;;;;;4.77;2.03;;;;;5.70;92510.00;;;;7391563;19;20125;-75
2022/09/29 02:40:50;;;;;;;5.90;2.30;;;;;5.70;92516.00;;;;7389423;19;20128;-77
2022/09/29 02:43:35;;;;;;;3.03;2.13;;;;;5.70;92504.00;;;;7390718;19;20117;-74
2022/09/29 02:46:36;;;;;;;8.77;3.33;;;;;5.70;92503.00;;;;7389248;19;20509;-74
2022/09/29 02:49:10;;;;;;;4.80;2.30;;;;;5.90;92496.00;;;;7390319;19;20129;-73
2022/09/29 02:51:49;;;;;;;8.47;2.77;;;;;5.80;92494.00;;;;7388961;19;20601;-75
2022/09/29 02:55:10;;;;;;;4.87;1.97;;;;;5.60;92495.00;;;;7388006;19;20151;-76
2022/09/29 02:58:28;;;;;;;5.00;2.20;;;;;5.50;92504.00;;;;7388895;19;20145;-75
2022/09/29 03:00:58;;;;;;;12.30;2.63;;;;;5.60;92502.00;;;;7386075;19;20140;-74
2022/09/29 03:03:35;;;;;;;4.77;2.30;;;;;5.70;92498.00;;;;7389633;19;20121;-75
2022/09/29 03:06:03;;;;;;;7.50;2.43;;;;;5.50;92504.00;;;;7390585;19;20623;-74
2022/09/29 03:08:31;;;;;;;4.77;2.50;;;;;5.50;92500.00;;;;7387892;19;20128;-74
2022/09/29 03:11:05;;;;;;;6.07;2.50;;;;;5.40;92497.00;;;;7389135;19;20196;-74
2022/09/29 03:13:32;;;;;;;6.43;1.93;;;;;5.30;92491.00;;;;7388062;19;20133;-76
2022/09/29 03:16:00;;;;;;;4.63;2.00;;;;;5.40;92491.00;;;;7388646;19;20141;-75
2022/09/29 03:18:36;;;;;;;6.13;1.83;;;;;5.60;92489.00;;;;7390752;19;20124;-75
2022/09/29 03:21:04;;;;;;;10.87;2.40;;;;;5.40;92487.00;;;;7390222;19;20139;-74
2022/09/29 03:23:31;;;;;;;7.53;2.37;;;;;5.70;92486.00;;;;7387805;19;20521;-75
2022/09/29 03:26:05;;;;;;;9.30;2.77;;;;;6.00;92483.00;;;;7388922;19;20143;-75
2022/09/29 03:28:33;;;;;;;4.97;2.40;;;;;5.60;92484.00;;;;7388673;19;20216;-75
2022/09/29 03:31:08;;;;;;;2.87;2.20;;;;;5.40;92476.00;;;;7387596;19;20151;-75
2022/09/29 03:33:43;;;;;;;5.57;2.40;;;;;5.20;92475.00;;;;7384515;19;20141;-75
2022/09/29 03:36:13;;;;;;;6.37;2.27;;;;;5.20;92472.00;;;;7388845;19;20597;-75
2022/09/29 03:38:42;;;;;;;4.27;2.50;;;;;5.10;92478.00;;;;7387276;19;20129;-75
2022/09/29 03:41:16;;;;;;;10.20;2.33;;;;;5.20;92481.00;;;;7387870;19;20133;-75
2022/09/29 03:43:44;;;;;;;4.57;2.27;;;;;5.10;92474.00;;;;7388042;19;20136;-75
2022/09/29 03:46:11;;;;;;;5.00;2.50;;;;;5.20;92476.00;;;;7392391;19;20124;-75
2022/09/29 03:48:48;;;;;;;3.43;2.40;;;;;4.90;92477.00;;;;7395289;19;20141;-75
2022/09/29 03:51:16;;;;;;;9.27;2.23;;;;;4.90;92489.00;;;;7395999;19;20137;-75
2022/09/29 03:53:43;;;;;;;6.53;2.30;;;;;4.80;92492.00;;;;7391626;19;20659;-75
2022/09/29 03:56:17;;;;;;;5.70;2.50;;;;;4.90;92486.00;;;;7394532;19;20129;-75
2022/09/29 03:58:45;;;;;;;10.03;2.20;;;;;4.80;92493.00;;;;7395769;19;20141;-75
2022/09/29 04:01:17;;;;;;;4.03;2.40;;;;;4.90;92490.00;;;;7393532;19;20607;-74
2022/09/29 04:03:51;;;;;;;7.77;2.40;;;;;5.00;92490.00;;;;7392804;19;20515;-75
2022/09/29 04:06:18;;;;;;;4.87;2.23;;;;;5.10;92490.00;;;;7394563;19;20136;-75
2022/09/29 04:08:48;;;;;;;7.00;3.13;;;;;5.20;92490.00;;;;7394335;19;20201;-74
2022/09/29 04:11:21;;;;;;;4.57;2.90;;;;;5.20;92493.00;;;;7395415;19;20129;-75
2022/09/29 04:13:49;;;;;;;4.90;2.30;;;;;5.00;92488.00;;;;7392641;19;20168;-74
2022/09/29 04:16:19;;;;;;;7.07;2.67;;;;;4.90;92491.00;;;;7393646;19;20161;-74
2022/09/29 04:18:54;;;;;;;7.40;2.80;;;;;5.10;92487.00;;;;7392915;19;20509;-75
2022/09/29 04:21:21;;;;;;;5.00;2.47;;;;;5.30;92483.00;;;;7394732;19;20125;-74
2022/09/29 04:23:49;;;;;;;10.60;2.80;;;;;5.30;92487.00;;;;7393355;19;20129;-75
2022/09/29 04:26:25;;;;;;;8.63;3.17;;;;;5.10;92486.00;;;;7394475;19;20123;-75
2022/09/29 04:28:54;;;;;;;9.40;3.80;;;;;4.80;92478.00;;;;7395122;19;20607;-75
2022/09/29 04:31:21;;;;;;;6.57;2.83;;;;;4.80;92480.00;;;;7394863;19;20155;-75
2022/09/29 04:33:55;;;;;;;5.87;2.80;;;;;4.90;92482.00;;;;7390125;19;20133;-75
2022/09/29 04:36:23;;;;;;;6.00;3.20;;;;;4.80;92485.00;;;;7392483;19;20440;-75
2022/09/29 04:38:50;;;;;;;9.10;2.83;;;;;4.90;92486.00;;;;7395052;19;20610;-74
2022/09/29 04:41:24;;;;;;;5.67;2.87;;;;;4.70;92486.00;;;;7393282;19;20184;-76
2022/09/29 04:44:01;;;;;;;26.00;11.67;;;;;4.80;92490.00;;;;7393432;19;20155;-75
2022/09/29 04:46:29;;;;;;;11.23;3.80;;;;;4.80;92491.00;;;;7394575;19;20135;-74
2022/09/29 04:49:03;;;;;;;7.17;3.33;;;;;4.70;92487.00;;;;7394407;19;20193;-74
2022/09/29 04:51:30;;;;;;;10.20;3.13;;;;;4.90;92490.00;;;;7393366;19;20694;-75
2022/09/29 04:53:58;;;;;;;10.87;2.70;;;;;4.90;92489.00;;;;7392370;19;20144;-75
2022/09/29 04:56:39;;;;;;;9.53;2.63;;;;;4.90;92488.00;;;;7391387;19;20140;-74
2022/09/29 04:59:07;;;;;;;13.20;3.40;;;;;4.80;92496.00;;;;7394441;19;20140;-75
2022/09/29 05:01:41;;;;;;;13.83;2.90;;;;;4.90;92494.00;;;;7393437;19;20140;-74
2022/09/29 05:04:12;;;;;;;9.43;2.70;;;;;5.00;92497.00;;;;7393161;19;20125;-74
2022/09/29 05:06:42;;;;;;;9.30;2.80;;;;;5.10;92503.00;;;;7392137;19;20139;-75
2022/09/29 05:09:18;;;;;;;10.47;2.70;;;;;4.90;92499.00;;;;7395491;19;20149;-76
2022/09/29 05:11:53;;;;;;;6.70;2.83;;;;;4.80;92500.00;;;;7394278;19;20128;-74
2022/09/29 05:14:26;;;;;;;7.13;3.03;;;;;4.90;92497.00;;;;7393255;19;20129;-74
2022/09/29 05:16:58;;;;;;;11.90;2.70;;;;;5.00;92494.00;;;;7393505;19;20200;-77
2022/09/29 05:19:37;;;;;;;14.47;3.40;;;;;5.00;92509.00;;;;7398905;19;20144;-74
2022/09/29 05:22:23;;;;;;;7.20;2.73;;;;;4.70;92515.00;;;;7397279;19;20141;-74
2022/09/29 05:24:51;;;;;;;10.63;3.47;;;;;4.60;92514.00;;;;7397172;19;20488;-77
2022/09/29 05:27:31;;;;;;;7.87;2.77;;;;;4.50;92513.00;;;;7396588;19;20579;-74
2022/09/29 05:30:00;;;;;;;8.93;2.97;;;;;4.50;92520.00;;;;7396824;19;20495;-74
2022/09/29 05:32:29;;;;;;;8.07;3.10;;;;;4.60;92519.00;;;;7394685;19;20476;-74
2022/09/29 05:35:05;;;;;;;6.17;2.93;;;;;4.90;92525.00;;;;7394214;19;20152;-74
2022/09/29 05:37:32;;;;;;;5.63;3.00;;;;;5.10;92517.00;;;;7395038;19;20121;-75
2022/09/29 05:40:00;;;;;;;4.53;3.07;;;;;5.10;92525.00;;;;7395626;19;20140;-75
2022/09/29 05:42:34;;;;;;;7.70;3.20;;;;;5.20;92526.00;;;;7394966;19;20517;-75
2022/09/29 05:45:03;;;;;;;6.50;3.33;;;;;5.30;92520.00;;;;7399363;19;20247;-73
2022/09/29 05:47:31;;;;;;;6.53;3.50;;;;;5.30;92517.00;;;;7393997;19;20129;-73
2022/09/29 05:50:07;;;;;;;9.53;3.60;;;;;5.50;92512.00;;;;7394640;19;20143;-74
2022/09/29 05:52:34;;;;;;;9.57;3.63;;;;;5.40;92503.00;;;;7394375;19;20472;-73
2022/09/29 05:55:02;;;;;;;7.57;3.63;;;;;5.40;92506.00;;;;7391896;19;20631;-74
2022/09/29 05:57:36;;;;;;;6.10;3.73;;;;;5.30;92507.00;;;;7393066;19;20153;-76
2022/09/29 06:00:06;;;;;;;7.67;3.53;;;;;5.30;92509.00;;;;7394129;19;20209;-74
2022/09/29 06:02:34;;;;;;;9.57;4.60;;;;;5.10;92509.00;;;;7394965;19;20134;-74
2022/09/29 06:05:08;;;;;;;11.67;3.67;;;;;5.30;92510.00;;;;7392771;19;20127;-77
2022/09/29 06:07:36;;;;;;;6.93;3.20;;;;;5.40;92512.00;;;;7391578;19;20137;-74
2022/09/29 06:10:04;;;;;;;11.33;3.63;;;;;5.40;92529.00;;;;7393203;19;20208;-77
2022/09/29 06:12:38;;;;;;;9.00;3.50;;;;;5.50;92529.00;;;;7391496;19;20175;-74
2022/09/29 06:15:06;;;;;;;8.63;3.03;;;;;5.50;92540.00;;;;7391555;19;20133;-74
2022/09/29 06:17:34;;;;;;;5.17;3.10;;;;;5.80;92540.00;;;;7392745;19;20137;-76
2022/09/29 06:20:09;;;;;;;8.53;3.23;;;;;5.60;92546.00;;;;7393209;19;20160;-74
2022/09/29 06:22:37;;;;;;;16.67;3.13;;;;;5.70;92547.00;;;;7393388;19;20145;-74
2022/09/29 06:25:07;;;;;;;6.20;2.93;;;;;5.60;92548.00;;;;7393065;19;20145;-74
2022/09/29 06:27:45;;;;;;;5.17;3.10;;;;;5.60;92543.00;;;;7393071;19;20137;-75
2022/09/29 06:30:13;;;;;;;11.93;4.80;;;;;5.70;92540.00;;;;7392897;19;20137;-76
2022/09/29 06:32:42;;;;;;;11.37;7.20;;;;;5.70;92548.00;;;;7391896;19;20161;-75
2022/09/29 06:38:18;;;;;;;6.37;4.80;;;;;6.20;92540.00;;;;7391887;19;20121;-74
2022/09/29 06:40:54;;;;;;;6.23;3.37;;;;;6.40;92537.00;;;;7392495;19;20208;-75
2022/09/29 06:43:22;;;;;;;3.70;3.07;;;;;6.60;92539.00;;;;7392021;19;20160;-74
2022/09/29 06:45:49;;;;;;;7.87;2.87;;;;;6.70;92542.00;;;;7392063;19;20140;-75
2022/09/29 06:48:25;;;;;;;10.10;2.67;;;;;7.00;92550.00;;;;7391417;19;20157;-75
2022/09/29 06:50:52;;;;;;;7.53;3.17;;;;;6.90;92543.00;;;;7391642;19;20140;-74
2022/09/29 06:53:35;;;;;;;4.77;2.10;;;;;7.00;92551.00;;;;7390264;19;20137;-74
2022/09/29 06:56:17;;;;;;;4.30;2.40;;;;;7.00;92553.00;;;;7392060;19;20140;-75
2022/09/29 06:58:46;;;;;;;6.13;2.83;;;;;7.10;92550.00;;;;7391905;19;20148;-74
2022/09/29 07:01:20;;;;;;;3.53;2.10;;;;;7.10;92548.00;;;;7391554;19;20466;-73
2022/09/29 07:03:48;;;;;;;5.43;2.20;;;;;7.10;92546.00;;;;7391599;19;20164;-77
2022/09/29 07:06:18;;;;;;;5.63;2.23;;;;;7.40;92544.00;;;;7393614;19;20125;-76
2022/09/29 07:09:03;;;;;;;7.07;2.20;;;;;7.30;92532.00;;;;7392873;19;20124;-76
2022/09/29 07:11:33;;;;;;;5.77;2.23;;;;;7.50;92542.00;;;;7393571;19;20468;-76
2022/09/29 07:14:14;;;;;;;4.17;1.90;;;;;7.80;92548.00;;;;7392258;19;20145;-74
2022/09/29 07:16:42;;;;;;;6.07;2.00;;;;;7.90;92553.00;;;;7392766;19;20466;-76
2022/09/29 07:19:18;;;;;;;3.23;2.23;;;;;8.00;92544.00;;;;7395903;19;20464;-75
2022/09/29 07:21:46;;;;;;;6.37;2.53;;;;;8.10;92551.00;;;;7400205;19;20156;-76
2022/09/29 07:24:16;;;;;;;2.67;2.00;;;;;8.20;92542.00;;;;7398907;19;20132;-74
2022/09/29 07:26:51;;;;;;;5.00;1.90;;;;;8.30;92547.00;;;;7398246;19;20144;-75
2022/09/29 07:29:21;;;;;;;3.43;2.00;;;;;8.20;92548.00;;;;7398790;19;20497;-75
2022/09/29 07:31:51;;;;;;;3.27;2.10;;;;;8.20;92545.00;;;;7399275;19;20121;-74
2022/09/29 07:34:25;;;;;;;4.93;1.93;;;;;8.30;92550.00;;;;7396853;19;20132;-73
2022/09/29 07:36:55;;;;;;;4.37;1.83;;;;;8.30;92544.00;;;;7398741;19;20530;-75
2022/09/29 07:39:30;;;;;;;2.87;1.47;;;;;8.40;92549.00;;;;7401419;19;20599;-74
2022/09/29 07:42:13;;;;;;;4.90;2.27;;;;;8.60;92546.00;;;;7398604;19;20200;-74
2022/09/29 07:44:40;;;;;;;2.43;1.60;;;;;8.70;92546.00;;;;7401580;19;20483;-74
2022/09/29 07:47:08;;;;;;;11.40;5.07;;;;;8.70;92543.00;;;;7400102;19;20620;-74
2022/09/29 07:49:44;;;;;;;11.48;5.07;;;;;8.70;92545.00;;;;7400192;19;20140;-74
2022/09/29 07:52:12;;;;;;;6.07;3.10;;;;;8.60;92543.00;;;;7395316;19;20143;-75
2022/09/29 07:54:40;;;;;;;5.43;2.00;;;;;8.70;92557.00;;;;7394054;19;20172;-74
2022/09/29 07:57:21;;;;;;;4.17;1.90;;;;;8.80;92549.00;;;;7397533;19;20125;-74
2022/09/29 07:59:49;;;;;;;4.83;2.43;;;;;8.80;92554.00;;;;7398038;19;20575;-74
2022/09/29 08:02:24;;;;;;;4.70;1.70;;;;;9.00;92556.00;;;;7395926;19;20153;-77
2022/09/29 08:04:55;;;;;;;3.25;1.40;;;;;9.10;92562.00;;;;7396800;19;20447;-75
2022/09/29 08:07:29;;;;;;;2.08;1.80;;;;;9.30;92557.00;;;;7395681;19;20196;-74
2022/09/29 08:10:05;;;;;;;4.10;2.05;;;;;9.30;92566.00;;;;7395733;19;20128;-74
2022/09/29 08:12:43;;;;;;;3.42;1.80;;;;;9.60;92566.00;;;;7390160;19;20144;-74
2022/09/29 08:15:23;;;;;;;2.30;1.50;;;;;9.60;92570.00;;;;7388910;19;20133;-73
2022/09/29 08:17:54;;;;;;;4.63;1.50;;;;;9.60;92570.00;;;;7395385;19;20143;-74
2022/09/29 08:20:30;;;;;;;3.80;1.92;;;;;9.60;92574.00;;;;7393352;19;20224;-75
2022/09/29 08:22:58;;;;;;;5.63;1.60;;;;;9.50;92576.00;;;;7394154;19;20483;-74
2022/09/29 08:25:26;;;;;;;3.50;1.77;;;;;9.60;92579.00;;;;7393868;19;20188;-74
2022/09/29 08:28:01;;;;;;;4.18;1.75;;;;;9.80;92582.00;;;;7393999;19;20136;-74
2022/09/29 08:30:29;;;;;;;4.05;2.00;;;;;9.60;92580.00;;;;7392925;19;20904;-76
2022/09/29 08:32:56;;;;;;;3.80;1.80;;;;;9.80;92584.00;;;;7394733;19;20132;-74
2022/09/29 08:35:31;;;;;;;3.67;1.80;;;;;10.00;92585.00;;;;7392527;19;20157;-77
2022/09/29 08:37:59;;;;;;;3.42;1.90;;;;;10.40;92590.00;;;;7393028;19;20128;-75
2022/09/29 08:40:30;;;;;;;3.58;1.70;;;;;10.90;92586.00;;;;7391447;19;20137;-75
2022/09/29 08:43:47;;;;;;;3.90;2.25;;;;;11.10;92588.00;;;;7395011;19;20125;-72
2022/09/29 08:46:25;;;;;;;3.53;1.58;;;;;11.50;92586.00;;;;7392060;19;20133;-74
2022/09/29 08:49:17;;;;;;;4.43;2.00;;;;;11.50;92597.00;;;;7394676;19;20128;-74
2022/09/29 08:52:24;;;;;;;7.85;1.80;;;;;11.60;92587.00;;;;7393403;19;20256;-74
2022/09/29 08:55:59;;;;;;;6.40;2.30;;;;;11.30;92606.00;;;;7390831;19;20256;-75
2022/09/29 08:58:27;;;;;;;3.92;2.83;;;;;10.70;92603.00;;;;7392028;19;20121;-74
2022/09/29 09:01:26;;;;;;;4.15;2.42;;;;;10.30;92608.00;;;;7392729;19;20465;-74
2022/09/29 09:04:25;;;;;;;9.73;2.00;;;;;10.20;92615.00;;;;7392890;19;20160;-74
2022/09/29 09:07:09;;;;;;;6.45;1.92;;;;;10.40;92625.00;;;;7392265;19;20133;-74
2022/09/29 09:10:02;;;;;;;5.47;1.33;;;;;10.20;92619.00;;;;7390721;19;20129;-74
2022/09/29 09:12:53;;;;;;;3.28;1.42;;;;;10.20;92624.00;;;;7391242;19;20631;-74
2022/09/29 09:15:52;;;;;;;4.63;1.50;;;;;10.40;92626.00;;;;7391044;19;20562;-74
2022/09/29 09:18:35;;;;;;;6.00;3.60;;;;;10.70;92627.00;;;;7391085;19;20758;-76
2022/09/29 09:21:08;;;;;;;8.20;4.40;;;;;10.90;92635.00;;;;7393248;19;20483;-76
2022/09/29 09:24:08;;;;;;;5.32;3.25;;;;;11.10;92635.00;;;;7391767;19;20151;-75
2022/09/29 09:26:41;;;;;;;4.22;1.75;;;;;11.50;92629.00;;;;7390736;19;20143;-74
2022/09/29 09:29:25;;;;;;;3.80;1.85;;;;;12.00;92630.00;;;;7393595;19;20132;-75
2022/09/29 09:32:04;;;;;;;2.60;1.52;;;;;12.10;92627.00;;;;7390702;19;20137;-75
2022/09/29 09:35:03;;;;;;;4.63;1.35;;;;;12.60;92613.00;;;;7389504;19;20604;-73
2022/09/29 09:37:53;;;;;;;5.60;1.92;;;;;12.80;92626.00;;;;7390698;19;20132;-74
2022/09/29 09:40:37;;;;;;;2.55;1.60;;;;;11.90;92630.00;;;;7388891;19;20143;-76
2022/09/29 09:43:10;;;;;;;4.82;1.90;;;;;11.40;92627.00;;;;7388310;19;20594;-76
2022/09/29 09:45:54;;;;;;;6.80;1.60;;;;;11.20;92634.00;;;;7391500;19;20148;-76
2022/09/29 09:49:05;;;;;;;4.93;2.17;;;;;11.10;92631.00;;;;7390600;19;20580;-76
2022/09/29 09:51:48;;;;;;;5.78;1.98;;;;;11.20;92624.00;;;;7389186;19;20140;-75
2022/09/29 09:54:30;;;;;;;5.15;2.45;;;;;11.50;92625.00;;;;7389091;19;20154;-76
2022/09/29 09:57:33;;;;;;;5.15;1.75;;;;;11.70;92620.00;;;;7388919;19;20567;-76
2022/09/29 10:00:24;;;;;;;2.25;1.50;;;;;11.90;92623.00;;;;7389773;19;20574;-76
2022/09/29 10:03:05;;;;;;;3.70;1.50;;;;;12.30;92639.00;;;;7389626;19;20137;-76
2022/09/29 10:05:44;;;;;;;3.67;1.55;;;;;12.10;92623.00;;;;7392383;19;20490;-76
2022/09/29 10:08:25;;;;;;;3.08;1.70;;;;;12.10;92628.00;;;;7389852;19;20595;-76
2022/09/29 10:10:54;;;;;;;3.80;1.38;;;;;12.10;92631.00;;;;7388575;19;20630;-76
2022/09/29 10:13:34;;;;;;;3.70;1.42;;;;;12.10;92633.00;;;;7387701;19;20168;-75
2022/09/29 10:16:15;;;;;;;3.55;1.30;;;;;11.90;92630.00;;;;7388910;19;20136;-76
2022/09/29 10:18:53;;;;;;;2.35;1.40;;;;;11.80;92628.00;;;;7390391;19;20147;-75
2022/09/29 10:21:27;;;;;;;2.85;1.40;;;;;11.90;92630.00;;;;7389665;19;20125;-76
2022/09/29 10:24:06;;;;;;;4.75;1.40;;;;;12.00;92635.00;;;;7389042;19;20121;-76
2022/09/29 10:26:44;;;;;;;5.25;1.38;;;;;12.10;92642.00;;;;7388898;19;20151;-76
2022/09/29 10:29:32;;;;;;;3.15;1.58;;;;;12.00;92640.00;;;;7389486;19;20196;-76
2022/09/29 10:32:07;;;;;;;3.92;1.98;;;;;12.00;92641.00;;;;7389955;19;20144;-76
2022/09/29 10:34:46;;;;;;;2.13;1.55;;;;;11.80;92643.00;;;;7389059;19;20507;-77
2022/09/29 10:37:47;;;;;;;3.47;1.67;;;;;11.60;92633.00;;;;7388148;19;20141;-76
2022/09/29 10:40:24;;;;;;;4.25;1.73;;;;;11.20;92639.00;;;;7387798;19;20136;-76
2022/09/29 10:42:52;;;;;;;4.95;1.70;;;;;10.90;92639.00;;;;7389396;19;20548;-76
2022/09/29 10:45:25;;;;;;;2.85;1.50;;;;;10.90;92645.00;;;;7389716;19;20591;-76
2022/09/29 10:48:13;;;;;;;4.75;1.73;;;;;10.90;92655.00;;;;7389917;19;20132;-76
2022/09/29 10:50:51;;;;;;;4.85;2.10;;;;;10.90;92652.00;;;;7388568;19;20139;-75
2022/09/29 10:53:42;;;;;;;4.88;2.03;;;;;10.90;92655.00;;;;7389499;19;20140;-76
2022/09/29 10:56:28;;;;;;;4.75;2.13;;;;;11.20;92647.00;;;;7393488;19;20569;-76
2022/09/29 10:59:09;;;;;;;3.05;1.92;;;;;11.50;92649.00;;;;7396564;19;20142;-77
2022/09/29 11:01:51;;;;;;;2.38;1.50;;;;;11.50;92642.00;;;;7397312;19;20520;-76
2022/09/29 11:04:31;;;;;;;3.28;1.60;;;;;11.40;92638.00;;;;7395691;19;20132;-76
2022/09/29 11:07:10;;;;;;;3.25;1.90;;;;;11.80;92643.00;;;;7395426;19;20190;-76
2022/09/29 11:09:45;;;;;;;2.58;2.00;;;;;11.90;92644.00;;;;7397329;19;20137;-76
2022/09/29 11:12:30;;;;;;;5.10;1.95;;;;;11.60;92648.00;;;;7394313;19;20161;-75
2022/09/29 11:15:25;;;;;;;5.82;2.03;;;;;11.80;92647.00;;;;7396097;19;20125;-75
2022/09/29 11:17:53;;;;;;;6.18;3.00;;;;;11.90;92649.00;;;;7395931;19;20141;-76
2022/09/29 11:20:34;;;;;;;3.65;2.00;;;;;12.00;92655.00;;;;7394718;19;20136;-76
2022/09/29 11:23:14;;;;;;;4.68;2.88;;;;;12.10;92664.00;;;;7396995;19;20624;-77
2022/09/29 11:26:30;;;;;;;4.88;2.00;;;;;11.90;92660.00;;;;7397033;19;20588;-76
2022/09/29 11:29:21;;;;;;;4.35;1.50;;;;;11.30;92654.00;;;;7395442;19;20125;-75
2022/09/29 11:32:22;;;;;;;3.67;2.03;;;;;11.20;92666.00;;;;7397115;19;20124;-75
2022/09/29 11:35:04;;;;;;;3.13;2.17;;;;;11.30;92669.00;;;;7397235;19;20470;-76
2022/09/29 11:37:57;;;;;;;2.55;1.67;;;;;11.30;92667.00;;;;7396131;19;20127;-75
2022/09/29 11:40:46;;;;;;;2.35;1.40;;;;;11.10;92665.00;;;;7394390;19;20137;-77
2022/09/29 11:43:28;;;;;;;2.65;1.27;;;;;11.10;92679.00;;;;7396112;19;20133;-75
2022/09/29 11:45:56;;;;;;;2.40;1.23;;;;;10.90;92679.00;;;;7395610;19;20148;-74
2022/09/29 11:48:53;;;;;;;2.65;1.20;;;;;11.00;92680.00;;;;7393765;19;20226;-75
2022/09/29 11:51:33;;;;;;;4.18;1.33;;;;;10.80;92683.00;;;;7394470;19;20134;-76
2022/09/29 11:54:43;;;;;;;3.35;1.13;;;;;10.80;92681.00;;;;7394584;19;20595;-76
2022/09/29 11:57:35;;;;;;;1.75;1.10;;;;;10.60;92677.00;;;;7391873;19;20129;-76
2022/09/29 12:00:12;;;;;;;1.85;1.08;;;;;10.70;92682.00;;;;7394133;19;20137;-77
2022/09/29 12:03:22;;;;;;;2.42;1.40;;;;;10.70;92680.00;;;;7394596;19;20635;-76
2022/09/29 12:06:30;;;;;;;1.85;1.20;;;;;10.80;92684.00;;;;7393154;19;20137;-76
2022/09/29 12:09:32;;;;;;;3.55;1.30;;;;;10.60;92677.00;;;;7395361;19;20160;-76
2022/09/29 12:12:14;;;;;;;2.38;1.27;;;;;10.60;92688.00;;;;7393182;19;20833;-76
2022/09/29 12:15:04;;;;;;;3.70;1.23;;;;;10.20;92686.00;;;;7394148;19;20549;-76
2022/09/29 12:17:45;;;;;;;6.65;4.32;;;;;10.20;92682.00;;;;7394570;19;20544;-76
2022/09/29 12:20:23;;;;;;;1.75;1.13;;;;;10.50;92670.00;;;;7394916;19;20127;-76
2022/09/29 12:23:02;;;;;;;1.05;0.90;;;;;10.70;92682.00;;;;7397125;19;20491;-76
2022/09/29 12:25:35;;;;;;;1.98;1.20;;;;;10.80;92677.00;;;;7394275;19;20136;-76
2022/09/29 12:28:16;;;;;;;2.00;1.15;;;;;10.40;92684.00;;;;7395925;19;20145;-76
2022/09/29 12:30:59;;;;;;;1.60;1.05;;;;;10.40;92676.00;;;;7393538;19;20651;-74
2022/09/29 12:33:43;;;;;;;1.52;1.10;;;;;10.30;92676.00;;;;7392895;19;20129;-74
2022/09/29 12:36:45;;;;;;;1.77;0.93;;;;;10.30;92678.00;;;;7391315;19;20599;-74
2022/09/29 12:39:40;;;;;;;2.78;1.00;;;;;10.50;92670.00;;;;7395258;19;20523;-76
2022/09/29 12:42:47;;;;;;;1.80;1.00;;;;;10.90;92676.00;;;;7395673;19;20161;-76
2022/09/29 12:45:47;;;;;;;3.15;1.20;;;;;11.00;92675.00;;;;7394589;19;20200;-76
2022/09/29 12:48:33;;;;;;;1.98;1.30;;;;;11.20;92681.00;;;;7395793;19;20124;-76
2022/09/29 12:51:32;;;;;;;2.47;1.42;;;;;11.20;92670.00;;;;7396557;19;20184;-75
2022/09/29 12:54:08;;;;;;;2.03;1.17;;;;;11.30;92679.00;;;;7397339;19;20224;-75
2022/09/29 12:57:14;;;;;;;1.90;1.30;;;;;11.40;92680.00;;;;7396125;19;20139;-75
2022/09/29 13:00:04;;;;;;;1.20;1.00;;;;;11.30;92677.00;;;;7397025;19;20165;-76
2022/09/29 13:03:09;;;;;;;2.33;1.20;;;;;11.40;92676.00;;;;7397962;19;20141;-75
2022/09/29 13:06:08;;;;;;;2.35;0.82;;;;;11.60;92675.00;;;;7396772;19;20167;-77
2022/09/29 13:09:13;;;;;;;3.05;1.02;;;;;11.80;92679.00;;;;7395087;19;20599;-75
2022/09/29 13:12:05;;;;;;;2.55;0.82;;;;;11.80;92677.00;;;;7395602;19;20143;-76
2022/09/29 13:15:12;;;;;;;1.13;0.93;;;;;11.50;92695.00;;;;7395568;19;20125;-76
2022/09/29 13:18:18;;;;;;;1.80;1.17;;;;;11.50;92689.00;;;;7393784;19;20160;-76
2022/09/29 13:21:14;;;;;;;1.38;1.00;;;;;11.70;92685.00;;;;7386842;19;20600;-76
2022/09/29 13:24:12;;;;;;;2.20;0.93;;;;;11.90;92683.00;;;;7396309;19;20125;-75
2022/09/29 13:27:26;;;;;;;2.58;1.10;;;;;11.90;92679.00;;;;7396209;19;20137;-76